Sea Bright, New Jersey
Current Conditions -  °F | °C
As of 9:15 AM on Tuesday 27 Jan 2015 (Local Time) from KBLM Reporting Station
Overcast Overcast  
Wind Chill:   Ceiling: 1500
Heat Index: 23°   Visibility: 2.5mi
Dew Point: 16°   Wind: 21mph
Humidity: 74%   Direction: 340°NNW
Pressure: 29.68"   Gusts: 28mph
Location:  40.3613°N, 74.0061°W
Report Text: KBLM 271415Z AUTO 34018G24KT 2 1/2SM BKN015 OVC025 M05/M09 A2968 RMK AO1
Loading
Personal Weather Stations






























Interactive Weather Map New forecast layout! Learn more

10-Day Weather Forecast

Advertisements
Track Severe Weather on mobile